createdAt,value
2023-05-24T00:02:30.340Z,19.40
2023-05-24T00:05:33.622Z,19.42
2023-05-24T00:08:36.274Z,19.30
2023-05-24T00:11:38.934Z,19.38
2023-05-24T00:14:41.559Z,19.29
2023-05-24T00:17:44.259Z,19.43
2023-05-24T00:20:47.564Z,19.32
2023-05-24T00:23:51.850Z,19.34
2023-05-24T00:26:54.441Z,19.31
2023-05-24T00:29:57.068Z,19.37
2023-05-24T00:32:59.865Z,19.47
2023-05-24T00:36:02.574Z,19.47
2023-05-24T00:39:05.282Z,19.39
2023-05-24T00:42:08.043Z,19.37
2023-05-24T00:45:10.844Z,19.24
2023-05-24T00:48:14.309Z,19.22
2023-05-24T00:51:17.026Z,19.22
2023-05-24T00:54:20.809Z,19.18
2023-05-24T00:57:23.987Z,19.24
2023-05-24T01:00:27.614Z,19.36
2023-05-24T01:03:30.682Z,19.29
2023-05-24T01:06:44.952Z,19.07
2023-05-24T01:09:55.594Z,19.00
2023-05-24T01:13:08.462Z,19.01
2023-05-24T01:16:15.621Z,19.09
2023-05-24T01:19:33.654Z,19.01
2023-05-24T01:22:36.248Z,19.05
2023-05-24T01:26:01.010Z,18.97
2023-05-24T01:29:04.902Z,18.92
2023-05-24T01:32:07.619Z,18.97
2023-05-24T01:35:10.521Z,19.03
2023-05-24T01:38:13.255Z,19.04
2023-05-24T01:41:35.748Z,18.98
2023-05-24T01:44:43.384Z,18.95
2023-05-24T01:47:55.216Z,19.01
2023-05-24T01:50:58.977Z,19.04
2023-05-24T01:54:02.269Z,19.04
2023-05-24T01:57:09.172Z,19.00
2023-05-24T02:00:14.394Z,18.98
2023-05-24T02:03:17.395Z,18.99
2023-05-24T02:06:20.050Z,18.99
2023-05-24T02:09:22.677Z,18.93
2023-05-24T02:12:25.840Z,18.92
2023-05-24T02:15:30.401Z,18.91
2023-05-24T02:18:34.909Z,19.04
2023-05-24T02:21:37.771Z,18.91
2023-05-24T02:24:40.505Z,18.84
2023-05-24T02:27:47.028Z,18.92
2023-05-24T02:30:49.795Z,18.86
2023-05-24T02:33:52.471Z,18.70
2023-05-24T02:36:55.950Z,18.64
2023-05-24T02:39:58.625Z,18.57
2023-05-24T02:43:01.368Z,18.54
2023-05-24T02:46:04.220Z,18.65
2023-05-24T02:49:07.021Z,18.47
2023-05-24T02:52:09.738Z,18.55
2023-05-24T02:55:12.420Z,18.56
2023-05-24T02:58:17.707Z,18.44
2023-05-24T03:01:22.072Z,18.48
2023-05-24T03:04:24.934Z,18.49
2023-05-24T03:07:27.549Z,18.49
2023-05-24T03:10:30.172Z,18.64
2023-05-24T03:13:32.999Z,18.56
2023-05-24T03:16:35.932Z,18.57
2023-05-24T03:19:39.655Z,18.49
2023-05-24T03:22:42.282Z,18.53
2023-05-24T03:25:45.025Z,18.50
2023-05-24T03:28:50.642Z,18.58
2023-05-24T03:31:54.876Z,18.54
2023-05-24T03:34:59.533Z,18.46
2023-05-24T03:38:02.927Z,18.52
2023-05-24T03:41:06.267Z,18.40
2023-05-24T03:44:10.141Z,18.39
2023-05-24T03:47:12.821Z,18.42
2023-05-24T03:50:15.561Z,18.58
2023-05-24T03:53:18.224Z,18.51
2023-05-24T03:56:20.974Z,18.68
2023-05-24T03:59:23.650Z,18.58
2023-05-24T04:02:26.325Z,18.60
2023-05-24T04:05:30.076Z,18.63
2023-05-24T04:08:32.830Z,18.54
2023-05-24T04:11:36.277Z,18.50
2023-05-24T04:14:39.134Z,18.53
2023-05-24T04:17:43.879Z,18.56
2023-05-24T04:20:46.675Z,18.55
2023-05-24T04:23:49.344Z,18.56
2023-05-24T04:26:52.036Z,18.59
2023-05-24T04:29:55.134Z,18.75
2023-05-24T04:32:58.171Z,18.65
2023-05-24T04:36:01.990Z,18.77
2023-05-24T04:39:05.587Z,18.81
2023-05-24T04:42:08.287Z,18.89
2023-05-24T04:45:10.994Z,18.84
2023-05-24T04:48:13.618Z,18.89
2023-05-24T04:51:16.218Z,19.10
2023-05-24T04:54:18.874Z,19.26
2023-05-24T04:57:21.500Z,19.22
2023-05-24T05:00:24.194Z,19.36
2023-05-24T05:03:26.919Z,19.44
2023-05-24T05:06:29.654Z,19.56
2023-05-24T05:09:32.311Z,19.75
2023-05-24T05:12:34.898Z,19.73
2023-05-24T05:15:37.602Z,19.60
2023-05-24T05:18:41.054Z,19.63
2023-05-24T05:21:43.692Z,19.77
2023-05-24T05:24:46.260Z,19.72
2023-05-24T05:27:48.919Z,19.80
2023-05-24T05:30:51.577Z,19.85
2023-05-24T05:33:54.157Z,19.91
2023-05-24T05:36:56.887Z,19.79
2023-05-24T05:39:59.564Z,19.85
2023-05-24T05:43:02.400Z,19.91
2023-05-24T05:46:05.030Z,19.89
2023-05-24T05:49:09.781Z,19.99
2023-05-24T05:52:12.429Z,19.95
2023-05-24T05:55:17.410Z,19.99
2023-05-24T05:58:20.196Z,19.96
2023-05-24T06:01:25.972Z,20.07
2023-05-24T06:04:28.938Z,20.16
2023-05-24T06:07:32.078Z,20.21
2023-05-24T06:10:34.996Z,20.36
2023-05-24T06:13:37.367Z,20.52
2023-05-24T06:16:43.771Z,20.66
2023-05-24T06:19:46.588Z,20.86
2023-05-24T06:22:50.692Z,21.16
2023-05-24T06:25:53.376Z,21.40
2023-05-24T06:28:56.373Z,21.74
2023-05-24T06:31:58.734Z,21.79
2023-05-24T06:35:01.685Z,21.80
2023-05-24T06:38:04.065Z,21.96
2023-05-24T06:41:06.948Z,21.96
2023-05-24T06:44:09.610Z,22.02
2023-05-24T06:47:12.601Z,21.81
2023-05-24T06:50:15.126Z,21.90
2023-05-24T06:53:18.007Z,21.89
2023-05-24T06:56:20.468Z,21.93
2023-05-24T06:59:23.426Z,21.85
2023-05-24T07:02:27.650Z,21.84
2023-05-24T07:05:31.562Z,22.02
2023-05-24T07:08:33.884Z,22.19
2023-05-24T07:11:36.786Z,22.39
2023-05-24T07:14:39.151Z,22.63
2023-05-24T07:17:42.156Z,22.86
2023-05-24T07:20:44.733Z,23.01
2023-05-24T07:23:47.993Z,23.07
2023-05-24T07:26:51.743Z,23.31
2023-05-24T07:29:54.661Z,23.56
2023-05-24T07:32:57.181Z,23.86
2023-05-24T07:36:00.174Z,24.14
2023-05-24T07:39:04.830Z,24.34
2023-05-24T07:42:07.816Z,24.54
2023-05-24T07:45:10.559Z,24.91
2023-05-24T07:48:13.918Z,25.00
2023-05-24T07:51:16.356Z,25.27
2023-05-24T07:54:19.308Z,25.34
2023-05-24T07:57:21.692Z,25.74
2023-05-24T08:00:25.332Z,25.71
2023-05-24T08:03:28.858Z,25.63
2023-05-24T08:06:32.998Z,25.93
2023-05-24T08:09:36.491Z,26.00
2023-05-24T08:12:39.228Z,26.32
2023-05-24T08:15:42.471Z,26.39
2023-05-24T08:18:45.348Z,26.67
2023-05-24T08:21:47.962Z,26.57
2023-05-24T08:24:50.968Z,26.46
2023-05-24T08:27:53.639Z,26.43
2023-05-24T08:30:56.280Z,26.86
2023-05-24T08:33:59.592Z,27.26
2023-05-24T08:37:02.388Z,27.41
2023-05-24T08:40:05.613Z,27.11
2023-05-24T08:43:12.090Z,26.82
2023-05-24T08:46:15.897Z,26.41
2023-05-24T08:49:18.704Z,26.18
2023-05-24T08:52:21.960Z,26.00
2023-05-24T08:55:24.900Z,26.10
2023-05-24T08:58:27.703Z,26.50
2023-05-24T09:01:31.813Z,27.43
2023-05-24T09:04:36.294Z,28.23
2023-05-24T09:07:38.941Z,28.87
2023-05-24T09:10:53.875Z,29.58
2023-05-24T09:13:58.467Z,30.22
2023-05-24T09:17:02.281Z,30.79
2023-05-24T09:20:10.337Z,31.11
2023-05-24T09:23:14.648Z,31.45
2023-05-24T09:26:17.516Z,31.62
2023-05-24T09:29:24.650Z,31.82
2023-05-24T09:32:28.716Z,31.64
2023-05-24T09:35:31.777Z,31.52
2023-05-24T09:38:36.537Z,31.84
2023-05-24T09:41:43.278Z,32.20
2023-05-24T09:44:47.288Z,32.63
2023-05-24T09:47:52.756Z,32.67
2023-05-24T09:51:06.398Z,32.67
2023-05-24T09:54:09.816Z,32.73
2023-05-24T09:57:12.435Z,32.96
2023-05-24T10:00:21.778Z,33.34
2023-05-24T10:03:25.248Z,33.67
2023-05-24T10:06:27.745Z,33.98
2023-05-24T10:09:34.102Z,34.26
2023-05-24T10:12:36.935Z,34.25
2023-05-24T10:15:39.888Z,34.14
2023-05-24T10:18:42.433Z,33.90
2023-05-24T10:21:47.647Z,34.06
2023-05-24T10:24:50.618Z,34.46
2023-05-24T10:28:04.873Z,34.35
2023-05-24T10:31:27.504Z,34.45
2023-05-24T10:34:30.861Z,34.65
2023-05-24T10:37:34.222Z,34.75
2023-05-24T10:40:41.418Z,34.36
2023-05-24T10:43:56.786Z,33.70
2023-05-24T10:47:09.775Z,33.74
2023-05-24T10:50:19.128Z,33.88
2023-05-24T10:53:23.538Z,33.98
2023-05-24T10:56:27.999Z,34.06
2023-05-24T10:59:38.003Z,34.06
2023-05-24T11:02:40.581Z,33.38
2023-05-24T11:05:46.806Z,32.77
2023-05-24T11:08:49.353Z,32.94
2023-05-24T11:11:56.378Z,33.23
2023-05-24T11:14:58.696Z,33.65
2023-05-24T11:18:13.822Z,33.50
2023-05-24T11:21:16.418Z,33.41
2023-05-24T11:24:20.176Z,33.81
2023-05-24T11:27:23.038Z,33.70
2023-05-24T11:30:26.616Z,33.77
2023-05-24T11:33:29.161Z,33.95
2023-05-24T11:36:33.220Z,33.99
2023-05-24T11:39:36.725Z,33.69
2023-05-24T11:42:39.794Z,33.84
2023-05-24T11:45:43.241Z,33.69
2023-05-24T11:48:56.618Z,33.82
2023-05-24T11:51:59.640Z,33.44
2023-05-24T11:55:03.330Z,33.17
2023-05-24T11:58:06.825Z,32.55
2023-05-24T12:01:22.926Z,32.58
2023-05-24T12:04:25.936Z,32.72
2023-05-24T12:07:28.872Z,32.55
2023-05-24T12:10:32.912Z,32.47
2023-05-24T12:13:36.496Z,32.25
2023-05-24T12:16:39.415Z,31.50
2023-05-24T12:19:43.323Z,30.74
2023-05-24T12:22:52.880Z,30.24
2023-05-24T12:26:02.051Z,30.08
2023-05-24T12:29:05.197Z,30.05
2023-05-24T12:32:12.827Z,29.70
2023-05-24T12:35:20.455Z,29.47
2023-05-24T12:38:25.679Z,29.38
2023-05-24T12:41:29.249Z,29.14
2023-05-24T12:44:31.888Z,28.79
2023-05-24T12:47:34.645Z,29.29
2023-05-24T12:50:37.354Z,29.65
2023-05-24T12:53:39.969Z,29.95
2023-05-24T12:56:42.965Z,29.66
2023-05-24T12:59:47.477Z,29.36
2023-05-24T13:02:52.992Z,29.24
2023-05-24T13:05:55.879Z,29.22
2023-05-24T13:08:58.488Z,29.48
2023-05-24T13:12:01.414Z,29.67
2023-05-24T13:15:04.730Z,29.76
2023-05-24T13:18:07.534Z,29.76
2023-05-24T13:21:12.340Z,29.75
2023-05-24T13:24:16.350Z,29.64
2023-05-24T13:27:19.300Z,29.68
2023-05-24T13:30:27.879Z,29.54
2023-05-24T13:33:36.305Z,29.59
2023-05-24T13:36:39.358Z,29.66
2023-05-24T13:39:42.947Z,29.76
2023-05-24T13:42:45.650Z,29.66
2023-05-24T13:45:48.429Z,29.71
2023-05-24T13:48:51.514Z,29.73
2023-05-24T13:51:57.232Z,29.72
2023-05-24T13:55:02.811Z,29.73
2023-05-24T13:58:06.005Z,29.75
2023-05-24T14:01:09.521Z,29.69
2023-05-24T14:04:12.586Z,29.46
2023-05-24T14:07:15.804Z,29.19
2023-05-24T14:10:21.979Z,29.01
2023-05-24T14:14:13.767Z,29.01
2023-05-24T14:16:51.642Z,28.76
2023-05-24T14:19:54.166Z,28.55
2023-05-24T14:23:01.779Z,28.40
2023-05-24T14:29:26.899Z,28.29
2023-05-24T14:32:32.506Z,28.34
2023-05-24T14:35:38.317Z,28.23
2023-05-24T14:38:40.964Z,28.18
2023-05-24T14:41:43.875Z,28.02
2023-05-24T14:44:46.212Z,27.79
2023-05-24T14:47:49.260Z,27.56
2023-05-24T14:50:51.739Z,27.41
2023-05-24T14:53:54.754Z,27.22
2023-05-24T14:56:57.120Z,27.27
2023-05-24T15:00:00.093Z,27.09
2023-05-24T15:03:02.933Z,26.90
2023-05-24T15:06:06.371Z,26.70
2023-05-24T15:09:08.767Z,26.28
2023-05-24T15:12:12.001Z,24.77
2023-05-24T15:15:14.736Z,23.63
2023-05-24T15:18:17.874Z,23.03
2023-05-24T15:21:20.853Z,23.11
2023-05-24T15:24:23.869Z,23.02
2023-05-24T15:27:26.207Z,23.28
2023-05-24T15:30:29.346Z,23.00
2023-05-24T15:33:32.892Z,23.08
2023-05-24T15:36:36.633Z,23.36
2023-05-24T15:39:39.081Z,23.30
2023-05-24T15:42:42.240Z,23.23
2023-05-24T15:45:45.011Z,23.58
2023-05-24T15:48:47.970Z,23.38
2023-05-24T15:54:56.212Z,23.70
2023-05-24T15:57:58.546Z,23.57
2023-05-24T16:01:01.506Z,23.72
2023-05-24T16:04:04.182Z,23.74
2023-05-24T16:07:07.057Z,23.66
2023-05-24T16:10:09.937Z,23.61
2023-05-24T16:13:12.877Z,23.86
2023-05-24T16:16:15.667Z,23.59
2023-05-24T16:19:18.579Z,23.62
2023-05-24T16:22:21.315Z,23.48
2023-05-24T16:25:24.099Z,23.61
2023-05-24T16:28:27.077Z,23.65
2023-05-24T16:31:30.321Z,23.61
2023-05-24T16:34:41.445Z,23.57
2023-05-24T16:37:56.130Z,23.55
2023-05-24T16:40:59.144Z,23.27
2023-05-24T16:44:01.894Z,23.28
2023-05-24T16:47:04.610Z,23.15
2023-05-24T16:50:09.863Z,23.17
2023-05-24T16:53:12.582Z,23.19
2023-05-24T16:56:15.509Z,22.95
2023-05-24T16:59:18.191Z,23.10
2023-05-24T17:02:20.917Z,22.93
2023-05-24T17:05:23.558Z,22.99
2023-05-24T17:08:27.564Z,22.87
2023-05-24T17:11:30.224Z,23.04
2023-05-24T17:14:33.126Z,22.97
2023-05-24T17:17:35.775Z,22.90
2023-05-24T17:20:38.540Z,22.84
2023-05-24T17:23:41.638Z,22.74
2023-05-24T17:26:45.347Z,22.74
2023-05-24T17:29:47.920Z,22.66
2023-05-24T17:32:50.597Z,22.51
2023-05-24T17:35:56.355Z,22.68
2023-05-24T17:38:59.143Z,22.60
2023-05-24T17:42:01.804Z,22.47
2023-05-24T17:45:04.851Z,22.39
2023-05-24T17:48:08.115Z,22.33
2023-05-24T17:51:11.084Z,22.31
2023-05-24T17:54:13.893Z,22.18
2023-05-24T17:57:16.526Z,22.25
2023-05-24T18:00:19.473Z,22.17
2023-05-24T18:03:22.006Z,22.21
2023-05-24T18:06:24.706Z,22.12
2023-05-24T18:09:27.520Z,22.01
2023-05-24T18:12:30.615Z,21.93
2023-05-24T18:15:33.361Z,22.00
2023-05-24T18:18:37.685Z,21.97
2023-05-24T18:21:43.238Z,21.87
2023-05-24T18:24:45.862Z,21.83
2023-05-24T18:27:48.522Z,21.94
2023-05-24T18:30:52.543Z,21.81
2023-05-24T18:33:55.415Z,21.77
2023-05-24T18:36:58.151Z,21.76
2023-05-24T18:40:01.061Z,21.75
2023-05-24T18:43:03.751Z,21.80
2023-05-24T18:46:06.760Z,21.70
2023-05-24T18:49:11.041Z,21.69
2023-05-24T18:52:13.825Z,21.60
2023-05-24T18:55:16.782Z,21.56
2023-05-24T18:58:19.510Z,21.54
2023-05-24T19:01:22.181Z,21.54
2023-05-24T19:04:24.883Z,21.49
2023-05-24T19:07:27.519Z,21.48
2023-05-24T19:10:30.219Z,21.45
2023-05-24T19:13:32.951Z,21.44
2023-05-24T19:16:35.923Z,21.46
2023-05-24T19:19:39.279Z,21.33
2023-05-24T19:22:41.951Z,21.34
2023-05-24T19:25:44.838Z,21.22
2023-05-24T19:28:51.590Z,21.17
2023-05-24T19:31:54.334Z,21.18
2023-05-24T19:34:56.998Z,21.15
2023-05-24T19:37:59.677Z,21.12
2023-05-24T19:41:02.468Z,21.12
2023-05-24T19:44:05.165Z,21.10
2023-05-24T19:47:07.841Z,21.09
2023-05-24T19:50:10.728Z,21.06
2023-05-24T19:53:15.083Z,20.98
2023-05-24T19:56:17.746Z,20.93
2023-05-24T19:59:20.448Z,20.88
2023-05-24T20:02:23.156Z,20.84
2023-05-24T20:05:26.174Z,20.84
2023-05-24T20:08:28.512Z,20.85
2023-05-24T20:11:31.435Z,20.69
2023-05-24T20:14:33.937Z,20.78
2023-05-24T20:17:37.015Z,20.66
2023-05-24T20:20:39.435Z,20.58
2023-05-24T20:23:42.462Z,20.49
2023-05-24T20:26:45.115Z,20.38
2023-05-24T20:29:48.210Z,20.33
2023-05-24T20:32:50.953Z,20.35
2023-05-24T20:35:54.451Z,20.35
2023-05-24T20:38:56.728Z,20.36
2023-05-24T20:41:59.658Z,20.43
2023-05-24T20:45:02.707Z,20.36
2023-05-24T20:48:05.999Z,20.26
2023-05-24T20:51:08.594Z,20.23
2023-05-24T20:54:13.589Z,20.15
2023-05-24T20:57:16.050Z,20.05
2023-05-24T21:00:19.088Z,20.05
2023-05-24T21:03:21.681Z,20.01
2023-05-24T21:06:25.074Z,19.97
2023-05-24T21:09:27.455Z,19.95
2023-05-24T21:12:30.877Z,19.93
2023-05-24T21:15:33.251Z,19.90
2023-05-24T21:18:36.178Z,19.86
2023-05-24T21:21:38.495Z,19.81
2023-05-24T21:24:41.388Z,19.77
2023-05-24T21:27:43.818Z,19.73
2023-05-24T21:30:46.770Z,19.74
2023-05-24T21:33:49.105Z,19.69
2023-05-24T21:36:52.086Z,19.74
2023-05-24T21:39:54.561Z,19.62
2023-05-24T21:42:57.544Z,19.58
2023-05-24T21:45:59.990Z,19.57
2023-05-24T21:49:05.837Z,19.58
2023-05-24T21:52:08.302Z,19.51
2023-05-24T21:55:11.273Z,19.51
2023-05-24T21:58:13.601Z,19.41
2023-05-24T22:01:16.509Z,19.37
2023-05-24T22:04:19.298Z,19.41
2023-05-24T22:07:22.056Z,19.37
2023-05-24T22:10:24.898Z,19.32
2023-05-24T22:13:27.595Z,19.46
2023-05-24T22:16:30.435Z,19.34
2023-05-24T22:22:48.772Z,19.24
2023-05-24T22:25:51.459Z,19.21
2023-05-24T22:28:55.630Z,19.25
2023-05-24T22:31:58.332Z,19.13
2023-05-24T22:35:00.995Z,19.09
2023-05-24T22:38:03.707Z,19.01
2023-05-24T22:41:06.660Z,19.00
2023-05-24T22:44:09.298Z,19.03
2023-05-24T22:47:14.024Z,19.02
2023-05-24T22:50:16.951Z,18.96
2023-05-24T22:53:19.574Z,19.04
2023-05-24T22:56:22.424Z,18.94
2023-05-24T22:59:25.098Z,18.84
2023-05-24T23:02:29.225Z,18.82
2023-05-24T23:05:32.038Z,18.81
2023-05-24T23:08:34.733Z,18.80
2023-05-24T23:11:37.467Z,18.75
2023-05-24T23:14:41.961Z,18.81
2023-05-24T23:17:44.769Z,18.82
2023-05-24T23:20:47.768Z,18.81
2023-05-24T23:23:51.217Z,18.79
2023-05-24T23:26:55.823Z,18.72
2023-05-24T23:29:58.445Z,18.81
2023-05-24T23:33:01.492Z,18.78
2023-05-24T23:36:04.331Z,18.81
2023-05-24T23:39:07.002Z,18.75
2023-05-24T23:42:09.670Z,18.68
2023-05-24T23:45:15.138Z,18.63
2023-05-24T23:48:17.772Z,18.66
2023-05-24T23:51:20.586Z,18.75
2023-05-24T23:54:23.220Z,18.82
2023-05-24T23:57:27.198Z,18.86
